sensor_id;sensor_type;location;lat;lon;timestamp;pressure;altitude;pressure_sealevel;temperature;humidity
21185;BME280;18176;49.502;11.754;2023-03-21T00:02:11;97153.56;;;11.34;68.97
21185;BME280;18176;49.502;11.754;2023-03-21T00:06:15;97153.31;;;11.24;68.96
21185;BME280;18176;49.502;11.754;2023-03-21T00:10:24;97143.63;;;11.18;68.92
21185;BME280;18176;49.502;11.754;2023-03-21T00:14:45;97140.28;;;11.22;68.57
21185;BME280;18176;49.502;11.754;2023-03-21T00:18:49;97128.97;;;11.15;69.40
21185;BME280;18176;49.502;11.754;2023-03-21T00:22:51;97149.16;;;11.16;69.72
21185;BME280;18176;49.502;11.754;2023-03-21T00:26:54;97140.25;;;11.11;69.83
21185;BME280;18176;49.502;11.754;2023-03-21T00:31:15;97133.22;;;11.05;70.17
21185;BME280;18176;49.502;11.754;2023-03-21T00:35:16;97128.25;;;10.97;70.68
21185;BME280;18176;49.502;11.754;2023-03-21T00:39:37;97129.84;;;10.86;71.78
21185;BME280;18176;49.502;11.754;2023-03-21T00:43:40;97125.31;;;10.87;71.59
21185;BME280;18176;49.502;11.754;2023-03-21T00:47:41;97110.78;;;10.78;71.52
21185;BME280;18176;49.502;11.754;2023-03-21T00:51:42;97133.25;;;10.75;72.49
21185;BME280;18176;49.502;11.754;2023-03-21T00:55:43;97121.25;;;10.61;73.00
21185;BME280;18176;49.502;11.754;2023-03-21T00:59:47;97120.66;;;10.71;73.15
21185;BME280;18176;49.502;11.754;2023-03-21T01:03:47;97107.56;;;10.76;72.89
21185;BME280;18176;49.502;11.754;2023-03-21T01:08:01;97107.31;;;10.66;72.75
21185;BME280;18176;49.502;11.754;2023-03-21T01:12:20;97115.28;;;10.77;72.82
21185;BME280;18176;49.502;11.754;2023-03-21T01:16:24;97114.47;;;10.77;72.78
21185;BME280;18176;49.502;11.754;2023-03-21T01:20:24;97112.03;;;10.64;73.02
21185;BME280;18176;49.502;11.754;2023-03-21T01:24:25;97114.84;;;10.50;73.94
21185;BME280;18176;49.502;11.754;2023-03-21T01:28:28;97110.34;;;10.51;74.11
21185;BME280;18176;49.502;11.754;2023-03-21T01:32:32;97100.72;;;10.56;74.02
21185;BME280;18176;49.502;11.754;2023-03-21T01:36:32;97107.03;;;10.55;73.92
21185;BME280;18176;49.502;11.754;2023-03-21T01:40:37;97097.59;;;10.59;73.52
21185;BME280;18176;49.502;11.754;2023-03-21T01:44:57;97097.41;;;10.43;74.22
21185;BME280;18176;49.502;11.754;2023-03-21T01:49:25;97095.38;;;10.45;74.25
21185;BME280;18176;49.502;11.754;2023-03-21T01:53:46;97085.56;;;10.45;75.24
21185;BME280;18176;49.502;11.754;2023-03-21T01:57:52;97086.81;;;10.43;74.80
21185;BME280;18176;49.502;11.754;2023-03-21T02:02:28;97075.44;;;10.42;74.99
21185;BME280;18176;49.502;11.754;2023-03-21T02:07:07;97092.13;;;10.43;74.93
21185;BME280;18176;49.502;11.754;2023-03-21T02:11:15;97084.50;;;10.35;75.08
21185;BME280;18176;49.502;11.754;2023-03-21T02:15:16;97076.06;;;10.26;75.09
21185;BME280;18176;49.502;11.754;2023-03-21T02:20:30;97072.84;;;10.24;74.46
21185;BME280;18176;49.502;11.754;2023-03-21T02:25:20;97069.56;;;10.22;74.20
21185;BME280;18176;49.502;11.754;2023-03-21T02:34:52;97061.06;;;10.20;73.90
21185;BME280;18176;49.502;11.754;2023-03-21T02:39:11;97067.84;;;10.16;73.63
21185;BME280;18176;49.502;11.754;2023-03-21T02:43:23;97076.94;;;10.20;73.64
21185;BME280;18176;49.502;11.754;2023-03-21T02:47:33;97070.63;;;10.21;73.49
21185;BME280;18176;49.502;11.754;2023-03-21T02:51:38;97071.28;;;10.17;73.60
21185;BME280;18176;49.502;11.754;2023-03-21T02:55:44;97072.09;;;10.17;73.51
21185;BME280;18176;49.502;11.754;2023-03-21T02:59:47;97077.44;;;10.11;73.33
21185;BME280;18176;49.502;11.754;2023-03-21T03:04:02;97072.22;;;10.04;74.10
21185;BME280;18176;49.502;11.754;2023-03-21T03:08:34;97075.34;;;9.83;75.13
21185;BME280;18176;49.502;11.754;2023-03-21T03:13:14;97077.09;;;9.71;75.96
21185;BME280;18176;49.502;11.754;2023-03-21T03:17:37;97077.69;;;9.55;76.70
21185;BME280;18176;49.502;11.754;2023-03-21T03:21:46;97074.47;;;9.53;76.69
21185;BME280;18176;49.502;11.754;2023-03-21T03:25:54;97072.00;;;9.51;77.14
21185;BME280;18176;49.502;11.754;2023-03-21T03:30:02;97073.72;;;9.46;76.91
21185;BME280;18176;49.502;11.754;2023-03-21T03:34:12;97069.91;;;9.60;76.59
21185;BME280;18176;49.502;11.754;2023-03-21T03:38:16;97070.34;;;9.57;76.20
21185;BME280;18176;49.502;11.754;2023-03-21T03:42:29;97068.03;;;9.42;76.74
21185;BME280;18176;49.502;11.754;2023-03-21T03:46:57;97069.00;;;9.30;77.23
21185;BME280;18176;49.502;11.754;2023-03-21T03:51:08;97068.78;;;9.31;77.40
21185;BME280;18176;49.502;11.754;2023-03-21T03:55:36;97068.28;;;9.41;76.74
21185;BME280;18176;49.502;11.754;2023-03-21T03:59:44;97056.28;;;9.38;76.42
21185;BME280;18176;49.502;11.754;2023-03-21T04:03:55;97068.03;;;9.42;76.19
21185;BME280;18176;49.502;11.754;2023-03-21T04:08:09;97062.69;;;9.49;75.61
21185;BME280;18176;49.502;11.754;2023-03-21T04:12:13;97056.66;;;9.42;75.66
21185;BME280;18176;49.502;11.754;2023-03-21T04:16:30;97058.50;;;9.23;76.62
21185;BME280;18176;49.502;11.754;2023-03-21T04:20:35;97054.88;;;9.17;77.06
21185;BME280;18176;49.502;11.754;2023-03-21T04:24:38;97062.63;;;9.12;76.71
21185;BME280;18176;49.502;11.754;2023-03-21T04:28:39;97053.94;;;9.05;76.85
21185;BME280;18176;49.502;11.754;2023-03-21T04:32:48;97053.19;;;8.98;76.83
21185;BME280;18176;49.502;11.754;2023-03-21T04:37:02;97049.44;;;8.88;77.03
21185;BME280;18176;49.502;11.754;2023-03-21T04:41:09;97049.50;;;8.81;77.01
21185;BME280;18176;49.502;11.754;2023-03-21T04:45:11;97049.16;;;8.71;77.61
21185;BME280;18176;49.502;11.754;2023-03-21T04:49:14;97056.03;;;8.79;77.52
21185;BME280;18176;49.502;11.754;2023-03-21T04:53:18;97054.72;;;8.88;77.09
21185;BME280;18176;49.502;11.754;2023-03-21T04:57:19;97060.38;;;8.91;77.39
21185;BME280;18176;49.502;11.754;2023-03-21T05:01:19;97065.22;;;8.94;78.21
21185;BME280;18176;49.502;11.754;2023-03-21T05:05:19;97057.25;;;9.01;78.10
21185;BME280;18176;49.502;11.754;2023-03-21T05:09:24;97055.59;;;9.06;77.86
21185;BME280;18176;49.502;11.754;2023-03-21T05:13:24;97067.16;;;9.05;78.00
21185;BME280;18176;49.502;11.754;2023-03-21T05:17:25;97071.63;;;9.05;77.77
21185;BME280;18176;49.502;11.754;2023-03-21T05:21:27;97078.19;;;9.02;78.06
21185;BME280;18176;49.502;11.754;2023-03-21T05:25:33;97067.97;;;9.06;78.12
21185;BME280;18176;49.502;11.754;2023-03-21T05:29:45;97070.31;;;9.21;77.94
21185;BME280;18176;49.502;11.754;2023-03-21T05:33:47;97070.91;;;9.41;77.17
21185;BME280;18176;49.502;11.754;2023-03-21T05:37:49;97065.13;;;9.50;76.74
21185;BME280;18176;49.502;11.754;2023-03-21T05:41:55;97066.22;;;9.61;76.87
21185;BME280;18176;49.502;11.754;2023-03-21T05:45:56;97070.66;;;9.67;76.87
21185;BME280;18176;49.502;11.754;2023-03-21T05:49:59;97072.09;;;9.81;76.44
21185;BME280;18176;49.502;11.754;2023-03-21T05:54:01;97070.41;;;9.86;75.97
21185;BME280;18176;49.502;11.754;2023-03-21T05:58:06;97080.69;;;9.95;77.64
21185;BME280;18176;49.502;11.754;2023-03-21T06:02:08;97074.19;;;10.15;76.77
21185;BME280;18176;49.502;11.754;2023-03-21T06:06:10;97071.00;;;10.36;76.00
21185;BME280;18176;49.502;11.754;2023-03-21T06:10:20;97069.66;;;10.45;76.65
21185;BME280;18176;49.502;11.754;2023-03-21T06:14:24;97071.28;;;10.88;75.42
21185;BME280;18176;49.502;11.754;2023-03-21T06:18:39;97065.66;;;11.19;73.23
21185;BME280;18176;49.502;11.754;2023-03-21T06:22:50;97086.44;;;11.45;71.75
21185;BME280;18176;49.502;11.754;2023-03-21T06:26:51;97077.88;;;11.66;70.21
21185;BME280;18176;49.502;11.754;2023-03-21T06:30:58;97077.88;;;11.89;69.70
21185;BME280;18176;49.502;11.754;2023-03-21T06:35:00;97085.00;;;12.01;68.22
21185;BME280;18176;49.502;11.754;2023-03-21T06:39:02;97090.00;;;11.97;66.97
21185;BME280;18176;49.502;11.754;2023-03-21T06:43:09;97094.59;;;12.02;65.20
21185;BME280;18176;49.502;11.754;2023-03-21T06:47:12;97094.75;;;12.23;64.79
21185;BME280;18176;49.502;11.754;2023-03-21T06:51:15;97092.28;;;12.45;63.95
21185;BME280;18176;49.502;11.754;2023-03-21T06:55:30;97093.66;;;12.64;63.05
21185;BME280;18176;49.502;11.754;2023-03-21T06:59:31;97102.31;;;12.71;62.71
21185;BME280;18176;49.502;11.754;2023-03-21T07:03:56;97101.47;;;12.82;60.17
21185;BME280;18176;49.502;11.754;2023-03-21T07:07:59;97077.09;;;12.29;61.39
21185;BME280;18176;49.502;11.754;2023-03-21T07:12:03;97107.09;;;12.57;60.49
21185;BME280;18176;49.502;11.754;2023-03-21T07:16:19;97098.25;;;12.52;61.02
21185;BME280;18176;49.502;11.754;2023-03-21T07:20:24;97101.47;;;12.54;60.70
21185;BME280;18176;49.502;11.754;2023-03-21T07:24:25;97102.03;;;12.84;60.66
21185;BME280;18176;49.502;11.754;2023-03-21T07:28:27;97105.28;;;13.19;58.93
21185;BME280;18176;49.502;11.754;2023-03-21T07:32:31;97105.44;;;13.63;58.00
21185;BME280;18176;49.502;11.754;2023-03-21T07:36:36;97099.50;;;14.16;56.49
21185;BME280;18176;49.502;11.754;2023-03-21T07:40:36;97099.91;;;13.86;54.26
21185;BME280;18176;49.502;11.754;2023-03-21T07:44:37;97096.22;;;14.30;54.43
21185;BME280;18176;49.502;11.754;2023-03-21T07:48:38;97093.44;;;14.20;52.70
21185;BME280;18176;49.502;11.754;2023-03-21T07:52:42;97097.28;;;14.77;52.78
21185;BME280;18176;49.502;11.754;2023-03-21T07:56:44;97095.84;;;14.97;51.80
21185;BME280;18176;49.502;11.754;2023-03-21T08:00:48;97097.38;;;14.61;51.08
21185;BME280;18176;49.502;11.754;2023-03-21T08:04:52;97093.09;;;14.60;51.13
21185;BME280;18176;49.502;11.754;2023-03-21T08:08:57;97098.94;;;14.84;50.95
21185;BME280;18176;49.502;11.754;2023-03-21T08:13:00;97098.25;;;14.45;51.20
21185;BME280;18176;49.502;11.754;2023-03-21T08:17:00;97096.38;;;14.94;51.39
21185;BME280;18176;49.502;11.754;2023-03-21T08:21:01;97095.06;;;14.96;50.45
21185;BME280;18176;49.502;11.754;2023-03-21T08:25:06;97094.38;;;15.79;49.36
21185;BME280;18176;49.502;11.754;2023-03-21T08:29:10;97095.13;;;16.27;47.79
21185;BME280;18176;49.502;11.754;2023-03-21T08:33:11;97090.41;;;16.44;45.97
21185;BME280;18176;49.502;11.754;2023-03-21T08:37:12;97080.88;;;16.78;46.44
21185;BME280;18176;49.502;11.754;2023-03-21T08:41:15;97069.38;;;17.48;44.33
21185;BME280;18176;49.502;11.754;2023-03-21T08:45:17;97076.34;;;17.74;43.82
21185;BME280;18176;49.502;11.754;2023-03-21T08:49:19;97069.66;;;17.31;44.22
21185;BME280;18176;49.502;11.754;2023-03-21T08:53:22;97072.31;;;17.62;43.67
21185;BME280;18176;49.502;11.754;2023-03-21T08:57:25;97059.34;;;18.04;41.21
21185;BME280;18176;49.502;11.754;2023-03-21T09:01:26;97050.88;;;18.46;41.82
21185;BME280;18176;49.502;11.754;2023-03-21T09:05:27;97049.25;;;18.93;39.82
21185;BME280;18176;49.502;11.754;2023-03-21T09:09:28;97048.19;;;19.23;38.81
21185;BME280;18176;49.502;11.754;2023-03-21T09:13:31;97040.34;;;18.98;37.71
21185;BME280;18176;49.502;11.754;2023-03-21T09:17:32;97045.97;;;19.02;36.61
21185;BME280;18176;49.502;11.754;2023-03-21T09:21:32;97042.56;;;18.86;36.36
21185;BME280;18176;49.502;11.754;2023-03-21T09:25:33;97045.09;;;18.72;36.86
21185;BME280;18176;49.502;11.754;2023-03-21T09:29:36;97048.69;;;17.89;38.20
21185;BME280;18176;49.502;11.754;2023-03-21T09:33:37;97041.88;;;18.70;37.69
21185;BME280;18176;49.502;11.754;2023-03-21T09:37:38;97045.38;;;19.05;36.96
21185;BME280;18176;49.502;11.754;2023-03-21T09:42:07;97038.19;;;19.34;37.16
21185;BME280;18176;49.502;11.754;2023-03-21T09:46:23;97031.75;;;19.30;37.94
21185;BME280;18176;49.502;11.754;2023-03-21T09:50:30;97029.56;;;20.74;35.58
21185;BME280;18176;49.502;11.754;2023-03-21T09:54:37;97018.09;;;21.79;33.78
21185;BME280;18176;49.502;11.754;2023-03-21T09:58:42;97008.06;;;22.47;32.51
21185;BME280;18176;49.502;11.754;2023-03-21T10:02:49;97012.81;;;21.28;33.08
21185;BME280;18176;49.502;11.754;2023-03-21T10:06:58;97023.78;;;20.99;33.00
21185;BME280;18176;49.502;11.754;2023-03-21T10:11:08;97022.63;;;20.49;33.88
21185;BME280;18176;49.502;11.754;2023-03-21T10:15:16;97022.53;;;20.36;33.72
21185;BME280;18176;49.502;11.754;2023-03-21T10:19:19;97011.97;;;20.63;33.27
21185;BME280;18176;49.502;11.754;2023-03-21T10:23:25;97012.06;;;19.68;34.36
21185;BME280;18176;49.502;11.754;2023-03-21T10:27:27;97009.41;;;20.71;31.84
21185;BME280;18176;49.502;11.754;2023-03-21T10:31:28;96991.94;;;20.69;33.13
21185;BME280;18176;49.502;11.754;2023-03-21T10:35:33;96973.59;;;22.44;31.02
21185;BME280;18176;49.502;11.754;2023-03-21T10:39:40;96981.19;;;21.33;31.83
21185;BME280;18176;49.502;11.754;2023-03-21T10:43:42;96975.13;;;21.09;32.81
21185;BME280;18176;49.502;11.754;2023-03-21T10:47:49;96977.78;;;21.41;32.75
21185;BME280;18176;49.502;11.754;2023-03-21T10:51:58;96964.22;;;23.30;30.69
21185;BME280;18176;49.502;11.754;2023-03-21T10:56:02;96970.19;;;23.41;29.99
21185;BME280;18176;49.502;11.754;2023-03-21T11:00:17;96971.69;;;22.31;31.20
21185;BME280;18176;49.502;11.754;2023-03-21T11:04:25;96965.06;;;23.70;29.59
21185;BME280;18176;49.502;11.754;2023-03-21T11:08:39;96959.22;;;24.41;29.88
21185;BME280;18176;49.502;11.754;2023-03-21T11:12:48;96955.16;;;25.33;28.36
21185;BME280;18176;49.502;11.754;2023-03-21T11:16:54;96953.34;;;24.65;28.97
21185;BME280;18176;49.502;11.754;2023-03-21T11:21:03;96940.25;;;24.67;28.98
21185;BME280;18176;49.502;11.754;2023-03-21T11:25:19;96936.06;;;25.67;28.05
21185;BME280;18176;49.502;11.754;2023-03-21T11:29:31;96940.44;;;24.54;29.50
21185;BME280;18176;49.502;11.754;2023-03-21T11:33:36;96931.41;;;22.70;32.06
21185;BME280;18176;49.502;11.754;2023-03-21T11:37:42;96933.88;;;23.64;31.08
21185;BME280;18176;49.502;11.754;2023-03-21T11:41:50;96922.84;;;22.99;32.58
21185;BME280;18176;49.502;11.754;2023-03-21T11:45:56;96922.97;;;22.14;34.05
21185;BME280;18176;49.502;11.754;2023-03-21T11:49:57;96919.94;;;23.96;31.62
21185;BME280;18176;49.502;11.754;2023-03-21T11:54:09;96907.72;;;22.67;33.44
21185;BME280;18176;49.502;11.754;2023-03-21T11:58:32;96901.53;;;23.59;32.60
21185;BME280;18176;49.502;11.754;2023-03-21T12:03:01;96897.59;;;23.03;32.47
21185;BME280;18176;49.502;11.754;2023-03-21T12:07:34;96878.81;;;22.98;32.69
21185;BME280;18176;49.502;11.754;2023-03-21T12:16:27;96869.25;;;21.90;33.98
21185;BME280;18176;49.502;11.754;2023-03-21T12:20:39;96864.84;;;24.01;31.91
21185;BME280;18176;49.502;11.754;2023-03-21T12:24:51;96860.72;;;24.55;30.23
21185;BME280;18176;49.502;11.754;2023-03-21T12:34:14;96845.97;;;26.03;28.34
21185;BME280;18176;49.502;11.754;2023-03-21T12:38:24;96841.44;;;24.82;29.37
21185;BME280;18176;49.502;11.754;2023-03-21T12:42:59;96848.75;;;25.65;28.28
21185;BME280;18176;49.502;11.754;2023-03-21T12:47:11;96837.13;;;24.72;30.06
21185;BME280;18176;49.502;11.754;2023-03-21T12:51:19;96846.28;;;25.14;29.50
21185;BME280;18176;49.502;11.754;2023-03-21T12:55:28;96842.84;;;24.71;30.68
21185;BME280;18176;49.502;11.754;2023-03-21T12:59:50;96831.47;;;25.41;29.39
21185;BME280;18176;49.502;11.754;2023-03-21T13:04:29;96830.88;;;26.14;28.58
21185;BME280;18176;49.502;11.754;2023-03-21T13:08:42;96823.47;;;25.53;29.28
21185;BME280;18176;49.502;11.754;2023-03-21T13:13:05;96816.47;;;25.72;28.39
21185;BME280;18176;49.502;11.754;2023-03-21T13:17:23;96821.22;;;24.54;30.43
21185;BME280;18176;49.502;11.754;2023-03-21T13:21:42;96823.91;;;23.59;31.48
21185;BME280;18176;49.502;11.754;2023-03-21T13:25:50;96809.13;;;23.26;31.96
21185;BME280;18176;49.502;11.754;2023-03-21T13:29:59;96798.41;;;23.60;31.63
21185;BME280;18176;49.502;11.754;2023-03-21T13:34:08;96803.41;;;23.28;32.04
21185;BME280;18176;49.502;11.754;2023-03-21T13:38:15;96794.56;;;23.36;32.66
21185;BME280;18176;49.502;11.754;2023-03-21T13:42:31;96780.28;;;26.10;29.65
21185;BME280;18176;49.502;11.754;2023-03-21T13:46:42;96773.44;;;25.62;29.22
21185;BME280;18176;49.502;11.754;2023-03-21T13:50:59;96765.53;;;25.49;29.48
21185;BME280;18176;49.502;11.754;2023-03-21T13:55:12;96771.00;;;25.11;30.23
21185;BME280;18176;49.502;11.754;2023-03-21T13:59:39;96752.75;;;25.78;29.32
21185;BME280;18176;49.502;11.754;2023-03-21T14:03:45;96774.00;;;24.72;30.98
21185;BME280;18176;49.502;11.754;2023-03-21T14:07:56;96764.59;;;24.69;30.11
21185;BME280;18176;49.502;11.754;2023-03-21T14:12:16;96757.75;;;24.72;30.74
21185;BME280;18176;49.502;11.754;2023-03-21T14:16:25;96754.88;;;22.44;33.51
21185;BME280;18176;49.502;11.754;2023-03-21T14:20:31;96759.00;;;22.19;33.91
21185;BME280;18176;49.502;11.754;2023-03-21T14:24:34;96758.97;;;21.89;34.56
21185;BME280;18176;49.502;11.754;2023-03-21T14:28:36;96759.63;;;22.16;34.24
21185;BME280;18176;49.502;11.754;2023-03-21T14:32:42;96748.28;;;21.34;35.61
21185;BME280;18176;49.502;11.754;2023-03-21T14:36:44;96751.69;;;21.26;35.65
21185;BME280;18176;49.502;11.754;2023-03-21T14:40:55;96742.22;;;20.88;36.18
21185;BME280;18176;49.502;11.754;2023-03-21T14:44:56;96751.75;;;21.48;35.96
21185;BME280;18176;49.502;11.754;2023-03-21T14:49:17;96750.47;;;22.04;35.19
21185;BME280;18176;49.502;11.754;2023-03-21T14:53:21;96730.72;;;22.39;34.70
21185;BME280;18176;49.502;11.754;2023-03-21T14:57:28;96738.22;;;22.20;35.63
21185;BME280;18176;49.502;11.754;2023-03-21T15:01:39;96729.19;;;21.44;35.77
21185;BME280;18176;49.502;11.754;2023-03-21T15:05:49;96728.91;;;22.04;35.07
21185;BME280;18176;49.502;11.754;2023-03-21T15:09:57;96726.69;;;22.06;35.88
21185;BME280;18176;49.502;11.754;2023-03-21T15:14:05;96722.66;;;22.17;35.45
21185;BME280;18176;49.502;11.754;2023-03-21T15:18:10;96721.56;;;21.24;36.47
21185;BME280;18176;49.502;11.754;2023-03-21T15:22:27;96719.56;;;21.02;37.43
21185;BME280;18176;49.502;11.754;2023-03-21T15:26:30;96700.38;;;21.31;36.96
21185;BME280;18176;49.502;11.754;2023-03-21T15:30:31;96708.22;;;21.06;37.11
21185;BME280;18176;49.502;11.754;2023-03-21T15:34:33;96710.19;;;21.27;37.24
21185;BME280;18176;49.502;11.754;2023-03-21T15:38:39;96712.78;;;20.51;38.51
21185;BME280;18176;49.502;11.754;2023-03-21T15:42:41;96708.09;;;20.43;38.88
21185;BME280;18176;49.502;11.754;2023-03-21T15:46:45;96707.28;;;20.10;39.46
21185;BME280;18176;49.502;11.754;2023-03-21T15:50:54;96721.59;;;19.92;40.33
21185;BME280;18176;49.502;11.754;2023-03-21T15:54:59;96715.13;;;19.42;40.96
21185;BME280;18176;49.502;11.754;2023-03-21T15:59:11;96718.88;;;19.22;41.04
21185;BME280;18176;49.502;11.754;2023-03-21T16:04:04;96719.06;;;19.26;41.58
21185;BME280;18176;49.502;11.754;2023-03-21T16:08:25;96711.16;;;19.34;41.64
21185;BME280;18176;49.502;11.754;2023-03-21T16:12:34;96718.31;;;19.44;40.60
21185;BME280;18176;49.502;11.754;2023-03-21T16:16:40;96716.00;;;19.14;41.67
21185;BME280;18176;49.502;11.754;2023-03-21T16:20:46;96719.25;;;18.92;42.17
21185;BME280;18176;49.502;11.754;2023-03-21T16:24:50;96719.72;;;18.75;42.86
21185;BME280;18176;49.502;11.754;2023-03-21T16:28:54;96724.28;;;18.99;42.63
21185;BME280;18176;49.502;11.754;2023-03-21T16:32:55;96720.31;;;19.15;42.35
21185;BME280;18176;49.502;11.754;2023-03-21T16:36:56;96731.38;;;18.89;43.35
21185;BME280;18176;49.502;11.754;2023-03-21T16:40:56;96728.59;;;18.76;43.49
21185;BME280;18176;49.502;11.754;2023-03-21T16:44:59;96728.19;;;18.87;43.50
21185;BME280;18176;49.502;11.754;2023-03-21T16:49:00;96731.47;;;18.79;43.84
21185;BME280;18176;49.502;11.754;2023-03-21T16:53:01;96747.03;;;18.59;44.41
21185;BME280;18176;49.502;11.754;2023-03-21T16:57:03;96741.41;;;18.27;45.04
21185;BME280;18176;49.502;11.754;2023-03-21T17:01:13;96742.06;;;18.13;45.58
21185;BME280;18176;49.502;11.754;2023-03-21T17:05:15;96742.34;;;18.12;45.63
21185;BME280;18176;49.502;11.754;2023-03-21T17:09:22;96737.13;;;17.97;45.52
21185;BME280;18176;49.502;11.754;2023-03-21T17:13:23;96735.09;;;17.84;46.93
21185;BME280;18176;49.502;11.754;2023-03-21T17:17:27;96742.53;;;17.92;46.39
21185;BME280;18176;49.502;11.754;2023-03-21T17:21:28;96747.53;;;17.70;47.57
21185;BME280;18176;49.502;11.754;2023-03-21T17:25:29;96743.72;;;17.76;47.49
21185;BME280;18176;49.502;11.754;2023-03-21T17:29:29;96742.19;;;17.65;47.74
21185;BME280;18176;49.502;11.754;2023-03-21T17:33:32;96738.00;;;17.48;47.96
21185;BME280;18176;49.502;11.754;2023-03-21T17:37:33;96746.53;;;17.50;48.12
21185;BME280;18176;49.502;11.754;2023-03-21T17:41:40;96755.78;;;17.29;49.01
21185;BME280;18176;49.502;11.754;2023-03-21T17:45:40;96757.09;;;17.37;48.67
21185;BME280;18176;49.502;11.754;2023-03-21T17:49:43;96752.50;;;17.42;49.07
21185;BME280;18176;49.502;11.754;2023-03-21T17:53:45;96751.41;;;17.53;48.80
21185;BME280;18176;49.502;11.754;2023-03-21T17:57:50;96752.75;;;17.41;49.19
21185;BME280;18176;49.502;11.754;2023-03-21T18:01:50;96754.03;;;17.05;50.57
21185;BME280;18176;49.502;11.754;2023-03-21T18:05:53;96757.81;;;16.99;50.76
21185;BME280;18176;49.502;11.754;2023-03-21T18:09:54;96758.06;;;16.97;50.59
21185;BME280;18176;49.502;11.754;2023-03-21T18:13:54;96762.34;;;17.03;50.48
21185;BME280;18176;49.502;11.754;2023-03-21T18:18:13;96759.72;;;16.93;50.94
21185;BME280;18176;49.502;11.754;2023-03-21T18:22:16;96759.38;;;17.10;50.49
21185;BME280;18176;49.502;11.754;2023-03-21T18:26:19;96764.72;;;17.15;50.64
21185;BME280;18176;49.502;11.754;2023-03-21T18:30:23;96767.63;;;17.13;50.68
21185;BME280;18176;49.502;11.754;2023-03-21T18:34:47;96736.00;;;17.20;50.22
21185;BME280;18176;49.502;11.754;2023-03-21T18:38:54;96769.75;;;17.21;50.75
21185;BME280;18176;49.502;11.754;2023-03-21T18:42:57;96772.44;;;17.16;51.04
21185;BME280;18176;49.502;11.754;2023-03-21T18:47:20;96767.00;;;16.72;52.17
21185;BME280;18176;49.502;11.754;2023-03-21T18:51:23;96776.31;;;16.90;51.98
21185;BME280;18176;49.502;11.754;2023-03-21T18:55:31;96787.06;;;16.75;52.82
21185;BME280;18176;49.502;11.754;2023-03-21T18:59:45;96790.19;;;16.97;52.72
21185;BME280;18176;49.502;11.754;2023-03-21T19:03:50;96792.13;;;16.81;53.57
21185;BME280;18176;49.502;11.754;2023-03-21T19:08:18;96790.03;;;16.53;56.13
21185;BME280;18176;49.502;11.754;2023-03-21T19:12:26;96794.06;;;16.36;57.93
21185;BME280;18176;49.502;11.754;2023-03-21T19:16:29;96803.97;;;16.25;58.60
21185;BME280;18176;49.502;11.754;2023-03-21T19:20:53;96807.16;;;16.07;59.24
21185;BME280;18176;49.502;11.754;2023-03-21T19:24:58;96803.72;;;16.11;58.71
21185;BME280;18176;49.502;11.754;2023-03-21T19:29:07;96793.00;;;15.91;59.40
21185;BME280;18176;49.502;11.754;2023-03-21T19:33:12;96775.91;;;15.92;58.65
21185;BME280;18176;49.502;11.754;2023-03-21T19:37:15;96779.38;;;15.98;59.14
21185;BME280;18176;49.502;11.754;2023-03-21T19:41:19;96788.75;;;16.10;58.54
21185;BME280;18176;49.502;11.754;2023-03-21T19:45:28;96782.31;;;15.81;59.78
21185;BME280;18176;49.502;11.754;2023-03-21T19:49:32;96801.28;;;16.05;60.31
21185;BME280;18176;49.502;11.754;2023-03-21T19:54:01;96793.56;;;16.08;59.75
21185;BME280;18176;49.502;11.754;2023-03-21T19:58:07;96795.16;;;15.99;59.68
21185;BME280;18176;49.502;11.754;2023-03-21T20:02:16;96786.06;;;16.10;59.22
21185;BME280;18176;49.502;11.754;2023-03-21T20:06:32;96781.78;;;15.99;59.65
21185;BME280;18176;49.502;11.754;2023-03-21T20:10:34;96758.53;;;15.90;60.07
21185;BME280;18176;49.502;11.754;2023-03-21T20:14:36;96773.22;;;16.02;61.73
21185;BME280;18176;49.502;11.754;2023-03-21T20:18:45;96774.81;;;15.93;62.72
21185;BME280;18176;49.502;11.754;2023-03-21T20:22:48;96781.78;;;16.09;62.01
21185;BME280;18176;49.502;11.754;2023-03-21T20:27:04;96788.75;;;16.15;61.82
21185;BME280;18176;49.502;11.754;2023-03-21T20:31:06;96770.03;;;16.05;61.97
21185;BME280;18176;49.502;11.754;2023-03-21T20:35:12;96784.47;;;15.99;62.26
21185;BME280;18176;49.502;11.754;2023-03-21T20:39:34;96755.56;;;15.61;63.19
21185;BME280;18176;49.502;11.754;2023-03-21T20:43:34;96774.84;;;15.63;63.04
21185;BME280;18176;49.502;11.754;2023-03-21T20:47:56;96789.25;;;15.82;62.99
21185;BME280;18176;49.502;11.754;2023-03-21T20:51:59;96791.63;;;15.49;64.20
21185;BME280;18176;49.502;11.754;2023-03-21T20:56:26;96789.47;;;15.45;63.98
21185;BME280;18176;49.502;11.754;2023-03-21T21:00:27;96784.41;;;15.59;64.12
21185;BME280;18176;49.502;11.754;2023-03-21T21:04:28;96778.00;;;15.55;63.87
21185;BME280;18176;49.502;11.754;2023-03-21T21:08:53;96776.44;;;15.69;63.23
21185;BME280;18176;49.502;11.754;2023-03-21T21:12:55;96785.50;;;15.68;63.30
21185;BME280;18176;49.502;11.754;2023-03-21T21:16:56;96776.38;;;15.54;63.00
21185;BME280;18176;49.502;11.754;2023-03-21T21:21:13;96774.28;;;15.51;63.44
21185;BME280;18176;49.502;11.754;2023-03-21T21:25:17;96772.69;;;15.65;62.81
21185;BME280;18176;49.502;11.754;2023-03-21T21:29:23;96772.63;;;15.45;63.32
21185;BME280;18176;49.502;11.754;2023-03-21T21:33:24;96767.59;;;15.54;63.20
21185;BME280;18176;49.502;11.754;2023-03-21T21:37:25;96768.34;;;15.39;63.51
21185;BME280;18176;49.502;11.754;2023-03-21T21:41:33;96780.06;;;15.33;63.84
21185;BME280;18176;49.502;11.754;2023-03-21T21:45:34;96784.41;;;15.44;63.13
21185;BME280;18176;49.502;11.754;2023-03-21T21:49:35;96789.19;;;15.42;63.39
21185;BME280;18176;49.502;11.754;2023-03-21T21:53:35;96804.69;;;15.45;63.36